CheckWX is a tool to help pilots better visualize weather data.  It is not intended as a substitute for an official pre-flight weather briefing.

14:15:31 UTC

KTHV METAR
York Airport
York, Pennsylvania, USA
Current

23 mins ago

KTHV 221353Z AUTO 35011KT 10SM FEW024 OVC047 13/08 A3016 RMK AO2 SLP216 T01280078
Observed
Apr-22 @ 13:53 UTC
Wind
  • 350° at 11 KTS
Visibility
10 SM
Flight Rules
VFR
Cloud Levels
  • Few at 2,400' AGL
  • Overcast at 4,700' AGL
Temperature
13°C / 55°F
Dewpoint
C / 46°F
Humidity
72%
Altimeter
30.16" Hg
Pressure
1021.32 hPa
Previous

1 hour ago

KTHV 221253Z AUTO 35011G17KT 10SM BKN045 OVC065 13/08 A3015 RMK AO2 SLP213 T01280078
Observed
Apr-22 @ 12:53 UTC
Wind
  • 350° at 11 KTS
  • Gusting to 17 KTS
Visibility
10 SM
Flight Rules
VFR
Cloud Levels
  • Broken at 4,500' AGL
  • Overcast at 6,500' AGL
Temperature
13°C / 55°F
Dewpoint
C / 46°F
Humidity
72%
Altimeter
30.15" Hg
Pressure
1021.02 hPa
Previous

2 hours ago

KTHV 221153Z AUTO 32010KT 10SM CLR 12/08 A3014 RMK AO2 SLP209 T01220083 10122 20083 53018
Observed
Apr-22 @ 11:53 UTC
Wind
  • 320° at 10 KTS
Visibility
10 SM
Flight Rules
VFR
Cloud Levels
  • Clear skies
Temperature
12°C / 54°F
Dewpoint
C / 46°F
Humidity
77%
Altimeter
30.14" Hg
Pressure
1020.62 hPa